Share

Rugby, TN

Oak Ridge (KOQT) Elev 915 ft | 36.02 °N, 84.23 °W | Change Station

Current weather conditions updated 27 minutes ago

Clear
Clear
68 °F
Feels Like 68 °F
N
7
Wind Variable Wind from Variable
Sunrise 7:02 AM
Sunset 8:14 PM
Moon Waning Gibbous

Tomorrow is forecast to be Cooler than today.

Pressure 30.29 in
Visibility 10.0 miles
Clouds Clear
Dew Point 26 °F
Humidity 21%
Rainfall 0.00 in
Snow Depth Not available.
UV 5 out of 16
Pollen 9.30 out of 12
Ozone Good
PM2.5 Good
Flu Activity Local Activity
METAR KOQT 172053Z AUTO VRB06KT 10SM CLR 20/M03 A3029 RMK AO2 SLP257 T02001033 58033

More Conditions Fewer Conditions

Pressure 30.29 in
Visibility 10.0 miles
Clouds Clear
Dew Point 26 °F
Humidity 21%
Rainfall 0.00 in
Snow Depth Not available.
UV 5 out of 16
Pollen 9.30 out of 12
Ozone Good
PM2.5 Good
Flu Activity Local Activity
METAR KOQT 172053Z AUTO VRB06KT 10SM CLR 20/M03 A3029 RMK AO2 SLP257 T02001033 58033

More Conditions Fewer Conditions

10-Day Forecast

Almanac

Astronomy

Apr. 17, 2014 Rise Set
Actual Time 7:02 AM EDT 8:14 PM EDT
Civil Twilight 6:36 AM EDT 8:41 PM EDT
Nautical Twilight 6:04 AM EDT 9:13 PM EDT
Astronomical Twilight 5:31 AM EDT 9:46 PM EDT
Moon 10:56 PM EDT 8:36 AM EDT
Length of Visible Light 14h 05m
Length of Day
13h 11m
Tomorrow will be 2m 9s longer.
Waning Gibbous, 92% of the Moon is Illuminated
Today
Waning Gibbous
Apr 22
Last Quarter
Apr 29
New
May 6
First Quarter
May 14
Full

Today's Extremes

State Highs State Lows

Community

  • Morning Light
    Morning Light
  • New Day
    New Day
  • Lake Michigan Sunrise
    Lake Michigan Sunrise
  • sunset from izmir, narlıdere
    sunset from izmir, narlıdere
  • oregon cherry
    oregon cherry

WunderPhotos

Upload Photos

1,702,134 photos uploaded!

Nearby

Air Quality

  Air Quality AQ Index Pollutant
Yesterday Good
OZONE
Yesterday Good
PM2.5
Current Good
OZONE
Current Good
PM2.5
Thursday Moderate
OZONE
Thursday Moderate
PM2.5
Friday Moderate
PM2.5
Friday Good
OZONE
Saturday Moderate
PM2.5
Saturday Good
OZONE
Sunday Moderate
PM2.5
Sunday Moderate
OZONE
Monday Moderate
PM2.5
Monday Good
OZONE

Snow Depth

Station Depth Elevation
No new snow has been reported.

Coastal Water Temperatures

Place Temperature
No Stations Reporting

Earthquake Activity

City Distance Mag. Time & Date
Englewood, Tennessee 64 miles 2.8 10:34 PM EDT
2014-04-12
Minimum magnitude displayed is 2.5.

Nearby Weather Stations

Station Location Temp. Dew Point Humidity Wind Precip. Elev Updated Type
RAWS BISO-NP TN, Elgin, TN 69 °F 24 °F 18% WSW  at  5 mph 0.00 in / hr 1444 ft 3:59 PM EDT MADIS

Show More Stations Show Fewer Stations

What do you think?

We're not finished. Please let us know what you like, what you don't like, and what you are still missing.